Latest Weather Observations for Horsham

IDV60801

Issued at 4:52 pm EST Sunday 11 April 2021 (issued every 10 minutes, with the page automatically refreshed every 10 minutes)

About weather observations | Map of weather stations | Latest weather observations for VIC | Other Formats
Station Details ID: 079100 Name: HORSHAM AERODROME Lat: -36.67 Lon: 142.17 Height: 133.8 m
Data from the previous 72 hours. | See also: Recent months at Horsham
Date/Time
EST
Temp
°C
App
Temp
°C
Dew
Point
°C
Rel
Hum
%
Delta-T
°C
Wind Press
QNH
hPa
Press
MSL
hPa
Rain since
9am
mm
Dir  Spd
km/h
Gust
km/h
Spd
kts
Gust
kts
11/04:30pm 15.2 7.6 3.0 44 5.5 SSW 32 41 17 22 1020.7 1020.6 0.0
11/04:00pm 16.0 6.9 2.1 39 6.2 SSW 39 54 21 29 1020.4 1020.3 0.0
11/03:30pm 16.0 7.7 2.4 40 6.1 SSW 35 52 19 28 1020.3 1020.2 0.0
11/03:00pm 15.5 6.2 0.9 37 6.3 SW 39 52 21 28 1020.0 1019.9 0.0
11/02:33pm 16.3 7.6 2.0 38 6.4 SW 37 59 20 32 1019.8 1019.7 0.0
11/02:30pm 17.0 8.6 1.8 36 6.8 SSW 35 46 19 25 1019.7 1019.6 0.0
11/02:11pm 15.7 7.5 2.8 42 5.9 SW 35 56 19 30 1019.8 1019.7 0.0
11/02:00pm 16.3 8.2 3.0 41 6.1 SW 35 44 19 24 1019.7 1019.6 0.0
11/01:30pm 15.4 5.6 3.5 45 5.5 SSW 44 56 24 30 1019.8 1019.7 0.0
11/01:11pm 16.1 6.6 1.8 38 6.4 SSW 41 59 22 32 1019.7 1019.6 0.0
11/01:00pm 16.6 7.4 3.3 41 6.1 SSW 41 52 22 28 1019.8 1019.7 0.0
11/12:30pm 14.9 5.3 3.4 46 5.3 SSW 43 54 23 29 1019.9 1019.8 0.0
11/12:00pm 14.9 6.6 4.3 49 4.9 SSW 37 50 20 27 1020.1 1020.0 0.0
11/11:30am 14.8 6.6 4.8 51 4.7 SSW 37 46 20 25 1019.9 1019.8 0.0
11/11:04am 14.3 5.5 3.5 48 4.9 SSW 39 57 21 31 1019.7 1019.6 0.0
11/11:00am 14.3 5.6 4.0 50 4.7 SSW 39 48 21 26 1019.8 1019.7 0.0
11/10:30am 14.0 5.4 4.6 53 4.4 SSW 39 50 21 27 1019.9 1019.8 0.0
11/10:00am 13.4 5.8 5.6 59 3.7 SW 35 44 19 24 1019.7 1019.6 0.0
11/09:30am 11.7 4.1 5.6 66 2.8 SW 35 46 19 25 1019.5 1019.4 0.0
11/09:00am 10.7 3.7 5.9 72 2.2 SW 32 39 17 21 1019.2 1019.1 0.4
11/08:30am 9.0 4.3 6.1 82 1.3 WSW 20 30 11 16 1018.9 1018.8 0.4
11/08:00am 7.2 2.9 5.2 87 0.9 WSW 17 20 9 11 1018.6 1018.5 0.4
11/07:30am 5.8 1.7 4.1 89 0.7 WSW 15 20 8 11 1018.2 1018.1 0.4
11/07:00am 5.2 1.7 3.4 88 0.8 WSW 11 15 6 8 1017.8 1017.7 0.4
11/06:30am 5.3 1.4 3.5 88 0.8 WSW 13 17 7 9 1017.4 1017.3 0.4
11/06:00am 5.6 0.6 3.8 88 0.8 WSW 19 22 10 12 1017.0 1016.9 0.4
11/05:30am 5.2 0.5 3.4 88 0.8 WSW 17 20 9 11 1016.8 1016.7 0.4
11/05:00am 5.6 1.4 3.8 88 0.8 WSW 15 19 8 10 1016.5 1016.4 0.4
11/04:30am 5.7 1.9 3.9 88 0.8 WSW 13 17 7 9 1016.0 1015.9 0.4
11/04:00am 5.6 1.4 3.9 89 0.7 WSW 15 19 8 10 1015.7 1015.6 0.4
11/03:30am 5.7 1.9 4.0 89 0.7 WSW 13 17 7 9 1015.7 1015.6 0.4
11/03:00am 5.8 1.6 4.0 88 0.8 WSW 15 19 8 10 1015.7 1015.6 0.4
11/02:30am 6.5 2.1 4.5 87 0.9 WSW 17 20 9 11 1015.5 1015.4 0.4
11/02:00am 7.1 2.3 4.8 85 1.0 WSW 19 24 10 13 1015.6 1015.5 0.4
11/01:30am 7.5 3.2 5.1 85 1.1 WSW 17 22 9 12 1015.6 1015.5 0.4
11/01:00am 7.8 3.2 5.4 85 1.1 WSW 19 24 10 13 1015.4 1015.3 0.4
11/12:30am 8.0 3.3 6.0 87 0.9 WSW 20 26 11 14 1015.1 1015.0 0.4
11/12:00am 8.4 2.6 6.2 86 1.0 SW 26 33 14 18 1015.0 1014.9 0.4
 
Date/Time
EST
Temp
°C
App
Temp
°C
Dew
Point
°C
Rel
Hum
%
Delta-T
°C
Wind Press
QNH
hPa
Press
MSL
hPa
Rain since
9am
mm
Dir  Spd
km/h
Gust
km/h
Spd
kts
Gust
kts
10/11:30pm 8.4 3.4 6.4 87 0.9 WSW 22 30 12 16 1015.0 1014.9 0.4
10/11:00pm 8.8 2.7 6.6 86 1.0 SW 28 33 15 18 1015.1 1015.0 0.4
10/10:30pm 9.0 2.9 6.6 85 1.1 SW 28 37 15 20 1014.7 1014.6 0.4
10/10:00pm 9.8 2.1 7.1 83 1.3 WSW 37 50 20 27 1014.8 1014.7 0.2
10/09:51pm 10.3 4.6 6.6 78 1.7 WSW 26 44 14 24 1014.5 1014.3 0.2
10/09:30pm 9.7 6.0 6.2 79 1.6 WSW 15 20 8 11 1014.2 1014.0 0.2
10/09:00pm 9.9 5.8 6.3 78 1.7 WSW 17 24 9 13 1014.0 1013.8 0.2
10/08:30pm 9.9 5.7 5.9 76 1.9 WSW 17 20 9 11 1013.8 1013.6 0.2
10/08:00pm 10.2 6.5 6.2 76 1.9 WSW 15 20 8 11 1013.7 1013.5 0.2
10/07:30pm 10.4 6.8 6.7 78 1.8 WSW 15 19 8 10 1013.4 1013.3 0.2
10/07:00pm 12.1 5.4 5.7 65 3.0 SW 30 37 16 20 1013.3 1013.2 0.2
10/06:30pm 12.7 5.6 5.4 61 3.4 SW 32 41 17 22 1012.7 1012.6 0.2
10/06:00pm 13.5 5.4 5.4 58 3.8 SW 37 52 20 28 1012.1 1012.0 0.2
10/05:34pm 15.2 6.8 3.7 46 5.3 SW 37 56 20 30 1011.7 1011.6 0.2
10/05:30pm 15.6 6.9 4.0 46 5.4 SW 39 54 21 29 1011.7 1011.6 0.2
10/05:04pm 15.4 7.3 3.5 45 5.5 WSW 35 54 19 29 1011.5 1011.4 0.2
10/05:00pm 15.3 7.4 4.1 47 5.2 WSW 35 48 19 26 1011.5 1011.4 0.2
10/04:30pm 16.1 8.0 5.1 48 5.3 WSW 37 50 20 27 1011.4 1011.3 0.2
10/04:00pm 17.3 7.8 3.9 41 6.3 WSW 43 59 23 32 1011.2 1011.1 0.2
10/03:45pm 17.6 9.6 3.9 40 6.5 WSW 35 56 19 30 1011.0 1010.9 0.2
10/03:30pm 17.5 9.2 2.3 36 6.9 WSW 35 48 19 26 1011.0 1010.9 0.2
10/03:19pm 18.7 9.4 2.9 35 7.4 WSW 41 67 22 36 1010.6 1010.5 0.2
10/03:00pm 19.0 10.4 2.4 33 7.7 SW 37 50 20 27 1010.8 1010.7 0.2
10/02:30pm 17.9 8.5 2.2 35 7.2 SW 41 52 22 28 1010.7 1010.6 0.2
10/02:14pm 18.1 10.3 4.7 41 6.5 WSW 35 54 19 29 1010.8 1010.7 0.2
10/02:00pm 17.9 9.2 4.1 40 6.6 SW 39 54 21 29 1010.7 1010.6 0.2
10/01:30pm 17.9 9.1 3.4 38 6.8 SW 39 52 21 28 1010.9 1010.8 0.2
10/01:00pm 18.4 9.4 2.3 34 7.4 WSW 39 52 21 28 1011.1 1011.0 0.2
10/12:30pm 18.3 8.6 3.8 38 6.9 SW 44 57 24 31 1011.3 1011.2 0.2
10/12:00pm 17.1 9.0 6.9 51 5.1 SW 39 50 21 27 1011.3 1011.2 0.2
10/11:30am 16.9 9.1 8.3 57 4.4 SW 39 52 21 28 1011.3 1011.2 0.2
10/11:00am 15.5 8.8 10.9 74 2.5 SW 37 50 20 27 1011.5 1011.4 0.2
10/10:49am 14.1 7.5 11.4 84 1.4 SW 37 50 20 27 1011.6 1011.5 0.2
10/10:36am 13.2 5.3 10.9 86 1.2 SW 43 54 23 29 1011.7 1011.6 0.2
10/10:30am 14.1 7.0 9.5 74 2.4 WSW 37 54 20 29 1011.4 1011.3 0.0
10/10:00am 16.1 9.5 10.0 67 3.2 WSW 35 48 19 26 1011.1 1011.0 0.0
10/09:31am 14.7 9.6 10.5 76 2.2 WSW 28 41 15 22 1011.2 1011.1 0.0
10/09:30am 14.5 9.3 10.1 75 2.3 WSW 28 41 15 22 1011.3 1011.2 0.0
10/09:00am 13.5 9.3 11.0 85 1.3 WNW 24 30 13 16 1010.9 1010.8 0.0
10/08:30am 12.0 8.4 10.7 92 0.7 W 20 26 11 14 1011.0 1010.9 0.0
10/08:12am 11.5 7.9 10.4 93 0.6 WNW 20 26 11 14 1010.8 1010.7 0.0
10/08:00am 11.3 7.2 10.0 92 0.7 WNW 22 26 12 14 1010.8 1010.7 0.0
10/07:30am 11.1 6.9 9.7 91 0.7 WNW 22 28 12 15 1010.6 1010.5 0.0
10/07:00am 10.6 6.2 9.0 90 0.8 W 22 30 12 16 1010.2 1010.1 0.0
10/06:30am 10.8 7.0 9.2 90 0.8 WNW 19 22 10 12 1010.2 1010.1 0.0
10/06:00am 10.9 7.5 9.2 89 0.9 WNW 17 20 9 11 1010.0 1009.9 0.0
10/05:30am 11.3 7.9 9.0 86 1.2 W 17 20 9 11 1010.1 1010.0 0.0
10/05:00am 11.5 8.1 9.1 85 1.2 W 17 22 9 12 1010.0 1009.9 0.0
10/04:30am 12.0 7.9 8.8 81 1.6 W 20 28 11 15 1009.9 1009.8 0.0
10/04:00am 12.3 8.2 8.8 79 1.8 W 20 26 11 14 1010.0 1009.9 0.0
10/03:30am 12.3 8.8 8.6 78 1.9 W 17 20 9 11 1010.1 1010.0 0.0
10/03:00am 12.4 9.5 8.3 76 2.0 W 13 19 7 10 1010.2 1010.1 0.0
10/02:30am 12.6 8.5 7.9 73 2.3 W 19 22 10 12 1010.4 1010.3 0.0
10/02:00am 12.8 9.5 7.9 72 2.4 W 15 19 8 10 1010.6 1010.5 0.0
10/01:30am 12.8 10.2 7.9 72 2.4 W 11 15 6 8 1010.9 1010.8 0.0
10/01:00am 12.9 9.9 7.8 71 2.5 W 13 15 7 8 1010.9 1010.8 0.0
10/12:30am 13.0 9.7 7.9 71 2.5 W 15 19 8 10 1011.1 1011.0 0.0
10/12:00am 13.0 9.3 8.1 72 2.4 WSW 17 20 9 11 1011.3 1011.2 0.0
 
Date/Time
EST
Temp
°C
App
Temp
°C
Dew
Point
°C
Rel
Hum
%
Delta-T
°C
Wind Press
QNH
hPa
Press
MSL
hPa
Rain since
9am
mm
Dir  Spd
km/h
Gust
km/h
Spd
kts
Gust
kts
09/11:30pm 12.9 9.3 8.2 73 2.3 WSW 17 24 9 13 1011.6 1011.5 0.0
09/11:00pm 12.9 10.0 8.0 72 2.4 WSW 13 19 7 10 1011.7 1011.6 0.0
09/10:30pm 12.6 9.6 7.5 71 2.5 WSW 13 17 7 9 1011.8 1011.7 0.0
09/10:00pm 13.3 9.5 7.7 69 2.8 SW 17 22 9 12 1011.7 1011.6 0.0
09/09:30pm 13.4 9.6 7.4 67 3.0 W 17 20 9 11 1011.7 1011.6 0.0
09/09:00pm 13.1 10.0 7.3 68 2.8 W 13 20 7 11 1011.6 1011.5 0.0
09/08:30pm 12.1 8.4 6.2 67 2.8 WSW 15 19 8 10 1011.3 1011.2 0.0
09/08:00pm 12.3 8.9 5.7 64 3.1 SW 13 17 7 9 1011.0 1010.9 0.0
09/07:30pm 13.0 8.8 5.7 61 3.5 SSW 17 19 9 10 1010.7 1010.6 0.0
09/07:00pm 15.0 11.7 6.6 57 4.1 SSW 13 19 7 10 1010.4 1010.3 0.0
09/06:30pm 15.2 11.8 5.7 53 4.6 SSW 13 15 7 8 1010.1 1010.0 0.0
09/06:00pm 17.0 12.3 5.9 48 5.4 SSW 20 24 11 13 1010.0 1009.9 0.0
09/05:30pm 17.6 12.9 6.2 47 5.6 SW 20 24 11 13 1010.3 1010.2 0.0
09/05:00pm 17.7 13.0 5.9 46 5.8 SW 20 28 11 15 1010.1 1010.0 0.0
09/04:30pm 18.0 13.5 5.9 45 6.0 SSW 19 26 10 14 1010.0 1009.9 0.0
09/04:00pm 17.8 13.3 7.0 49 5.4 SSW 20 30 11 16 1010.1 1010.0 0.0
09/03:30pm 18.0 12.5 7.4 50 5.4 SSW 26 37 14 20 1010.2 1010.1 0.0
09/03:00pm 18.4 13.5 6.9 47 5.8 SW 22 28 12 15 1010.2 1010.1 0.0
09/02:30pm 18.1 13.5 6.3 46 5.9 SSW 20 35 11 19 1010.5 1010.4 0.0
09/02:00pm 17.5 11.4 6.7 49 5.4 SSW 28 35 15 19 1010.9 1010.8 0.0
09/01:30pm 17.6 10.6 6.8 49 5.4 SSW 33 43 18 23 1011.3 1011.2 0.0
09/01:00pm 16.7 10.1 8.7 59 4.1 SSW 33 43 18 23 1011.6 1011.5 0.0
09/12:30pm 17.3 11.2 6.5 49 5.4 SW 28 39 15 21 1011.8 1011.7 0.0
09/12:00pm 17.4 11.4 6.9 50 5.3 SSW 28 37 15 20 1011.9 1011.8 0.0
09/11:30am 16.7 10.7 7.1 53 4.8 SSW 28 41 15 22 1012.1 1012.0 0.0
09/11:00am 15.9 10.2 8.2 60 3.9 SSW 28 37 15 20 1012.3 1012.2 0.0
09/10:30am 16.0 10.9 7.7 58 4.2 SSW 24 30 13 16 1012.2 1012.1 0.0
09/10:00am 16.1 10.4 8.3 60 4.0 SSW 28 37 15 20 1012.0 1011.9 0.0
09/09:30am 14.6 9.8 8.8 68 3.0 SSW 24 28 13 15 1012.2 1012.1 0.0
09/09:00am 13.7 9.7 9.2 74 2.3 SW 20 26 11 14 1012.1 1012.0 1.0
09/08:30am 12.3 8.7 10.0 86 1.2 SW 19 24 10 13 1011.7 1011.6 1.0
09/08:00am 11.3 8.5 9.9 91 0.7 SW 15 19 8 10 1011.3 1011.2 1.0
09/07:30am 9.9 7.1 8.7 92 0.6 SW 13 17 7 9 1011.0 1010.9 1.0
09/07:00am 9.6 6.7 8.2 91 0.7 SW 13 15 7 8 1010.5 1010.4 1.0
09/06:30am 10.5 7.0 8.9 90 0.8 SW 17 19 9 10 1010.2 1010.1 1.0
09/06:00am 11.1 7.7 9.2 88 1.0 SW 17 20 9 11 1009.8 1009.7 1.0
09/05:30am 11.8 8.1 10.0 89 0.9 SW 20 26 11 14 1009.6 1009.5 1.0
09/05:00am 12.3 8.9 10.5 89 0.9 SW 19 20 10 11 1009.2 1009.1 1.0
09/04:30am 12.9 9.1 11.1 89 1.0 SSW 22 28 12 15 1008.9 1008.8 1.0
09/04:00am 13.5 9.1 11.7 89 1.0 SSW 26 35 14 19 1008.6 1008.5 1.0
09/03:33am 13.9 9.7 12.3 90 0.9 SSW 26 35 14 19 1008.2 1008.0 1.0
09/03:30am 14.0 9.8 12.4 90 0.9 SSW 26 35 14 19 1008.2 1008.0 1.0
09/03:03am 14.2 8.9 12.6 90 0.9 SSW 32 41 17 22 1008.0 1007.8 1.0
09/03:00am 14.2 8.7 12.4 89 1.0 SSW 33 41 18 22 1008.0 1007.8 1.0
09/02:32am 14.8 8.7 13.0 89 1.0 SSW 37 46 20 25 1008.3 1008.1 1.0
09/02:30am 14.8 8.7 13.0 89 1.0 SSW 37 46 20 25 1008.4 1008.3 1.0
09/02:11am 15.5 11.2 14.5 94 0.6 SW 30 41 16 22 1008.3 1008.1 1.0
09/02:00am 15.6 12.5 14.6 94 0.6 WSW 24 30 13 16 1008.2 1008.0 1.0
09/01:51am 15.8 12.8 14.7 93 0.6 SW 24 32 13 17 1008.1 1007.9 1.0
09/01:50am 15.8 12.8 14.7 93 0.6 SW 24 32 13 17 1008.1 1007.9 1.0
09/01:30am 15.8 13.6 14.5 92 0.7 SW 19 26 10 14 1008.0 1007.8 1.0
09/01:00am 15.8 14.3 14.2 90 0.9 SW 15 19 8 10 1007.6 1007.4 1.0
09/12:30am 16.1 14.5 13.8 86 1.3 SW 15 19 8 10 1007.3 1007.1 0.8
09/12:00am 16.3 14.8 13.0 81 1.9 SW 13 17 7 9 1007.7 1007.5 0.4
 
Date/Time
EST
Temp
°C
App
Temp
°C
Dew
Point
°C
Rel
Hum
%
Delta-T
°C
Wind Press
QNH
hPa
Press
MSL
hPa
Rain since
9am
mm
Dir  Spd
km/h
Gust
km/h
Spd
kts
Gust
kts
08/11:30pm 16.8 14.5 11.9 73 2.7 SW 15 17 8 9 1007.9 1007.7 0.2
08/11:00pm 17.7 15.1 10.6 63 3.8 SW 15 17 8 9 1007.8 1007.6 0.0
08/10:30pm 19.0 16.0 6.2 43 6.4 SW 11 15 6 8 1007.5 1007.3 0.0
08/10:00pm 18.9 14.9 4.7 39 6.9 SW 15 19 8 10 1007.1 1006.9 0.0
08/09:30pm 19.1 15.3 3.7 36 7.3 SW 13 17 7 9 1007.4 1007.2 0.0
08/09:00pm 20.4 16.4 2.7 31 8.4 WSW 13 19 7 10 1007.1 1006.9 0.0
08/08:30pm 21.5 16.3 2.2 28 9.1 SW 19 24 10 13 1007.1 1006.9 0.0
08/08:00pm 22.1 16.8 1.7 26 9.6 WSW 19 26 10 14 1007.3 1007.1 0.0
08/07:30pm 22.4 19.1 2.5 27 9.5 WSW 9 13 5 7 1006.8 1006.6 0.0
08/07:00pm 23.2 18.4 2.7 26 9.9 SW 17 20 9 11 1006.9 1006.7 0.0
08/06:30pm 24.3 19.5 2.5 24 10.5 SW 17 22 9 12 1006.5 1006.3 0.0
08/06:00pm 25.4 19.5 1.5 21 11.4 SW 22 30 12 16 1006.2 1006.0 0.0
08/05:30pm 27.0 22.3 0.7 18 12.5 WSW 15 24 8 13 1006.2 1006.0 0.0
08/05:00pm 27.3 22.5 0.1 17 12.9 W 15 20 8 11 1006.0 1005.8 0.0

Other formats

Comma delimited format used in spreadsheet applications
http://www.bom.gov.au/fwo/IDV60801/IDV60801.95839.axf

JavaScript Object Notation format (JSON) in row-major order
http://www.bom.gov.au/fwo/IDV60801/IDV60801.95839.json

Data quality

Most of these data are generated automatically and are frequently updated. Quality checks on data are not normally performed. It is possible for incorrect values to appear. Refer to information at About Latest Weather Observations and please check the disclaimer before using these data.